Saturday, November 17, 2018, 10:15 AM EST
Back to Local

KIPT, Williamsport-lycoming County

Location: Montoursville, PA, United States Lat: 41.25
Local Time: 10:15 AM EST (15:15 GMT) Lon: -76.917
Time Zone: US/Eastern Elev: 528 ft

Show me the last for .
Show Decoded

2018-11-17 09:54 METAR KIPT 171454Z 28007KT 10SM BKN035 OVC044 04/M01 A3020 RMK AO2 SLP229
                 T00391006 51015 =
2018-11-17 08:54 METAR KIPT 171354Z 28007KT 10SM OVC040 03/M01 A3019 RMK AO2 SLP227 T00331006 =
2018-11-17 07:54 METAR KIPT 171254Z 29007KT 10SM OVC037 03/M01 A3018 RMK AO2 SLP224 T00331006 =
2018-11-17 06:54 METAR KIPT 171154Z 28007KT 10SM OVC039 03/M01 A3015 RMK AO2 SLP215 T00331006
                 10033 20028 53027 =
2018-11-17 05:54 METAR KIPT 171054Z AUTO 27008KT 10SM FEW034 OVC045 03/M01 A3012 RMK AO2 SLP205
                 T00331006 =
2018-11-17 04:54 METAR KIPT 170954Z AUTO 28007KT 10SM OVC043 03/M01 A3010 RMK AO2 SLP198
                 T00281006 =
2018-11-17 03:54 METAR KIPT 170854Z AUTO 28007KT 10SM OVC040 03/00 A3007 RMK AO2 SLP187 T00280000
                 53019 =
2018-11-17 02:54 METAR KIPT 170754Z AUTO 28008KT 10SM OVC031 03/M01 A3005 RMK AO2 SLP181
                 T00281006 =
2018-11-17 01:54 METAR KIPT 170654Z AUTO 28005KT 10SM OVC032 03/M01 A3003 RMK AO2 SLP173
                 T00281006 =
2018-11-17 00:54 METAR KIPT 170554Z AUTO 29005KT 10SM OVC028 03/M01 A3001 RMK AO2 SLP168
                 T00281006 10028 20022 53017 =
2018-11-16 23:54 METAR KIPT 170454Z AUTO 27005KT 10SM BKN025 OVC030 02/M01 A2999 RMK AO2 SLP160
                 T00221006 400331011 =
2018-11-16 22:54 METAR KIPT 170354Z AUTO 26005KT 10SM OVC021 02/M01 A2998 RMK AO2 SLP157
                 T00221011 =
2018-11-16 21:54 METAR KIPT 170254Z 27005KT 10SM OVC022 02/M02 A2996 RMK AO2 SLP151 T00221017
                 51018 =
2018-11-16 20:54 METAR KIPT 170154Z 28008KT 10SM OVC024 02/M02 A2995 RMK AO2 SLP147 T00221017 =
2018-11-16 19:54 METAR KIPT 170054Z 28007KT 10SM OVC024 02/M02 A2993 RMK AO2 SLP140 T00221017 =
2018-11-16 18:54 METAR KIPT 162354Z 27011KT 10SM OVC025 02/M02 A2991 RMK AO2 SLP134 T00221017
                 10033 20022 52025 =
2018-11-16 17:54 METAR KIPT 162254Z 26007KT 10SM OVC026 02/M02 A2988 RMK AO2 SLP124 T00221017 =
2018-11-16 16:54 METAR KIPT 162154Z 26010KT 10SM OVC029 03/M02 A2986 RMK AO2 SLP116 T00281022 =
2018-11-16 16:35 METAR KIPT 162135Z 26013G17KT 10SM OVC029 03/M02 A2986 RMK AO2 T00281022 =
2018-11-16 15:54 METAR KIPT 162054Z 26010KT 10SM OVC034 03/M02 A2983 RMK AO2 SLP107 T00331022
                 53015 =
2018-11-16 14:54 METAR KIPT 161954Z 26013G21KT 10SM BKN035 OVC043 03/M02 A2981 RMK AO2 SLP099
                 T00331022 =
2018-11-16 14:24 METAR KIPT 161924Z 26012KT 10SM OVC031 03/M02 A2981 RMK AO2 T00331017 =
2018-11-16 14:07 METAR KIPT 161907Z 26011G18KT 10SM OVC029 03/M02 A2980 RMK AO2 T00331017 =
2018-11-16 13:54 METAR KIPT 161854Z 25009G18KT 10SM OVC031 03/M02 A2979 RMK AO2 SLP093 T00331017
                 =
2018-11-16 13:11 METAR KIPT 161811Z 26012G21KT 10SM SCT030 OVC036 03/M01 A2979 RMK AO2 T00281011
                 =
2018-11-16 12:54 METAR KIPT 161754Z 27011KT 10SM OVC029 03/M01 A2979 RMK AO2 SLP091 60000
                 T00331011 10033 21011 55000 =
2018-11-16 12:49 METAR KIPT 161749Z 27013KT 10SM BKN029 OVC035 03/M01 A2979 RMK AO2 =
2018-11-16 12:10 METAR KIPT 161710Z 26013KT 10SM SCT030 BKN038 OVC120 03/M01 A2977 RMK AO2
                 T00281006 =
2018-11-16 11:54 METAR KIPT 161654Z 28012KT 10SM OVC029 03/M01 A2978 RMK AO2 SLP090 T00331006 =
2018-11-16 11:38 METAR KIPT 161638Z 27008KT 10SM OVC029 03/M01 A2979 RMK AO2 T00281006 =
2018-11-16 11:30 METAR KIPT 161630Z 28007KT 10SM BKN030 OVC110 03/M01 A2979 RMK AO2 T00281006 =
2018-11-16 10:54 METAR KIPT 161554Z 27006KT 10SM OVC027 02/M01 A2979 RMK AO2 SLP092 T00221006 =

Support USWX by starting your Amazon purchase here.